• Join FlightAware (Why Join?)
  • Login
  • US Flag 
08:31AM EDT


 

Airport Tracker/Info


-or-


 

Live Flight TrackerFlight Track Log ✈ N6GD ✈ 31-Jul-2014 ✈ KPIE - MYEM / GHB

Flight Track Log - Related Links

Times and Time Zones

All times are in EDT time to prevent confusion due to time zone crossing. See the N6GD flight status page for this flight to view local times or setup timezone preferences in your user account.

Time Position Orientation Groundspeed Altitude Reporting Facility
EDT Latitude Longitude Course Direction KTS MPH feet Rate Location/Type
10:22AM 27.9167 -82.6833 319° Northwest 158 182 700  Level Tampa TRACON
10:23AM 27.9833 -82.7500 319° Northwest 253 291 2,300 1,620 Climbing Tampa TRACON
10:24AM 27.9333 -82.8167 230° Southwest 271 312 4,800 2,340 Climbing Tampa TRACON
10:27AM 27.7828 -82.8131 179° South 297 342 10,300 2,220 Climbing Miami Center
10:28AM 27.7125 -82.7583 145° Southeast 307 353 12,500 2,100 Climbing Miami Center
10:29AM 27.6233 -82.6869 145° Southeast 330 380 14,700 1,860 Climbing Miami Center
10:30AM 27.5433 -82.6275 147° Southeast 343 395 16,400 1,680 Climbing Miami Center
10:31AM 27.4514 -82.5589 146° Southeast 355 409 18,200 1,680 Climbing Miami Center
10:32AM 27.3692 -82.4864 142° Southeast 361 415 19,900 1,500 Climbing Miami Center
10:33AM 27.2803 -82.4114 143° Southeast 372 428 21,300 1,200 Climbing Miami Center
10:34AM 27.2036 -82.3450 142° Southeast 382 440 22,500 1,200 Climbing Miami Center
10:35AM 27.1164 -82.2706 143° Southeast 389 448 23,800 1,380 Climbing Miami Center
10:36AM 27.0417 -82.1564 126° Southeast 394 453 25,400 1,320 Climbing Miami Center
10:37AM 26.9944 -82.0553 118° Southeast 396 456 26,600 1,320 Climbing Miami Center
10:38AM 26.9317 -81.9231 118° Southeast 401 461 28,200 1,380 Climbing Miami Center
10:39AM 26.8792 -81.8119 118° Southeast 405 466 29,500 1,260 Climbing Miami Center
10:40AM 26.8247 -81.7003 119° Southeast 407 468 30,900 1,380 Climbing Miami Center
10:41AM 26.7647 -81.5744 118° Southeast 409 471 32,400 1,380 Climbing Miami Center
10:42AM 26.7081 -81.4594 119° Southeast 409 471 33,800 1,200 Climbing Miami Center
10:43AM 26.6508 -81.3403 118° Southeast 410 472 35,000 540 Climbing Miami Center
10:44AM 26.5967 -81.2289 119° Southeast 428 493 35,000  Level Miami Center
10:45AM 26.5347 -81.1006 118° Southeast 445 512 35,000  Level Miami Center
10:46AM 26.4722 -80.9736 119° Southeast 443 510 35,000  Level Miami Center
10:48AM 26.4078 -80.8422 119° Southeast 446 513 35,000  Level Miami Center
10:49AM 26.3489 -80.7203 118° Southeast 446 513 35,000  Level Miami Center
10:50AM 26.2839 -80.5897 119° Southeast 447 514 35,000  Level Miami Center
10:51AM 26.2319 -80.4836 119° Southeast 447 514 35,000  Level Miami Center
10:52AM 26.1711 -80.3619 119° Southeast 447 514 35,000  Level Miami Center
10:53AM 26.0978 -80.2114 118° Southeast 475 547 35,000  Level Miami Center
10:54AM 26.0572 -80.0825 109° East 443 510 35,000  Level Miami Center
10:55AM 26.0314 -79.9483 102° East 439 505 35,000  Level Miami Center
10:56AM 26.0067 -79.8139 102° East 440 506 35,000  Level Miami Center
10:57AM 25.9800 -79.6808 103° East 442 509 35,000  Level Miami Center
10:58AM 25.9542 -79.5478 102° East 440 506 35,000  Level Miami Center
10:59AM 25.9233 -79.3872 102° East 442 509 35,000 -240 Level Miami Center
11:00AM 25.8972 -79.2539 102° East 442 509 34,600 -960 Descending Miami Center
11:01AM 25.8719 -79.1211 102° East 442 509 33,100 -1,440 Descending Miami Center
11:02AM 25.8442 -78.9903 103° East 440 506 31,600 -1,440 Descending Miami Center
11:03AM 25.8172 -78.8531 102° East 435 501 30,100 -1,500 Descending Miami Center
11:04AM 25.7906 -78.7219 103° East 435 501 28,600 -1,620 Descending Miami Center
11:05AM 25.7589 -78.5628 102° East 440 506 26,800 -1,620 Descending Miami Center
11:06AM 25.7311 -78.4292 103° East 443 510 25,300 -1,500 Descending Miami Center
11:07AM 25.7044 -78.2947 102° East 443 510 23,800 -1,560 Descending Miami Center
11:08AM 25.6747 -78.1525 103° East 432 497 22,100 -1,560 Descending Miami Center
11:09AM 25.6478 -78.0250 103° East 428 493 20,600 -1,440 Descending Miami Center
11:10AM 25.6208 -77.8983 103° East 424 488 19,100 -1,500 Descending Miami Center
11:11AM 25.5947 -77.7728 103° East 417 480 17,600 -1,500 Descending Miami Center
11:12AM 25.5675 -77.6417 103° East 398 458 16,000 -1,440 Descending Miami Center
11:13AM 25.5433 -77.5264 103° East 387 445 14,700 -1,200 Descending Miami Center
11:15AM 25.5194 -77.4164 104° East 371 427 13,500 -1,260 Descending Miami Center
11:16AM 25.4933 -77.2961 103° East 366 421 12,200 -1,260 Descending Miami Center
11:17AM 25.4708 -77.1922 103° East 352 405 10,900 -1,200 Descending Miami Center
11:18AM 25.4517 -77.1008 103° East 311 358 9,700 -1,320 Descending Miami Center
11:19AM 25.4311 -77.0094 104° East 282 325 8,200 -1,260 Descending Miami Center
11:20AM 25.4147 -76.9328 103° East 271 312 7,100 -1,080 Descending Miami Center